sensor_id;sensor_type;location;lat;lon;timestamp;pressure;altitude;pressure_sealevel;temperature;humidity
63552;BME280;49698;48.072;7.800;2022-09-09T00:02:01;99053.19;;;16.27;79.67
63552;BME280;49698;48.072;7.800;2022-09-09T00:04:33;99063.84;;;16.32;79.47
63552;BME280;49698;48.072;7.800;2022-09-09T00:07:08;99064.31;;;16.34;79.49
63552;BME280;49698;48.072;7.800;2022-09-09T00:09:41;99061.75;;;16.38;79.32
63552;BME280;49698;48.072;7.800;2022-09-09T00:12:14;99059.81;;;16.38;79.53
63552;BME280;49698;48.072;7.800;2022-09-09T00:14:48;99059.34;;;16.36;79.63
63552;BME280;49698;48.072;7.800;2022-09-09T00:17:30;99066.41;;;16.29;79.78
63552;BME280;49698;48.072;7.800;2022-09-09T00:20:04;99061.06;;;16.20;80.01
63552;BME280;49698;48.072;7.800;2022-09-09T00:22:41;99072.09;;;16.15;80.20
63552;BME280;49698;48.072;7.800;2022-09-09T00:25:16;99075.75;;;16.10;80.22
63552;BME280;49698;48.072;7.800;2022-09-09T00:27:49;99074.03;;;16.06;80.33
63552;BME280;49698;48.072;7.800;2022-09-09T00:30:19;99080.59;;;16.05;80.23
63552;BME280;49698;48.072;7.800;2022-09-09T00:32:51;99080.94;;;16.03;80.31
63552;BME280;49698;48.072;7.800;2022-09-09T00:35:22;99081.72;;;16.04;80.33
63552;BME280;49698;48.072;7.800;2022-09-09T00:37:56;99083.78;;;16.07;80.20
63552;BME280;49698;48.072;7.800;2022-09-09T00:40:29;99079.59;;;16.09;80.31
63552;BME280;49698;48.072;7.800;2022-09-09T00:43:14;99084.72;;;16.11;80.02
63552;BME280;49698;48.072;7.800;2022-09-09T00:46:21;99077.38;;;16.11;80.04
63552;BME280;49698;48.072;7.800;2022-09-09T00:48:59;99079.75;;;16.13;79.90
63552;BME280;49698;48.072;7.800;2022-09-09T00:51:42;99079.09;;;16.16;79.82
63552;BME280;49698;48.072;7.800;2022-09-09T00:54:38;99086.75;;;16.14;79.89
63552;BME280;49698;48.072;7.800;2022-09-09T00:57:18;99090.16;;;16.11;80.00
63552;BME280;49698;48.072;7.800;2022-09-09T00:59:52;99090.78;;;16.08;80.37
63552;BME280;49698;48.072;7.800;2022-09-09T01:02:26;99082.97;;;16.06;80.44
63552;BME280;49698;48.072;7.800;2022-09-09T01:05:02;99078.81;;;16.09;80.25
63552;BME280;49698;48.072;7.800;2022-09-09T01:07:32;99079.28;;;16.11;80.22
63552;BME280;49698;48.072;7.800;2022-09-09T01:10:07;99079.41;;;16.14;80.05
63552;BME280;49698;48.072;7.800;2022-09-09T01:12:41;99081.81;;;16.16;79.88
63552;BME280;49698;48.072;7.800;2022-09-09T01:15:18;99070.75;;;16.21;79.38
63552;BME280;49698;48.072;7.800;2022-09-09T01:17:55;99068.69;;;16.27;78.97
63552;BME280;49698;48.072;7.800;2022-09-09T01:20:30;99077.75;;;16.31;78.60
63552;BME280;49698;48.072;7.800;2022-09-09T01:23:21;99082.97;;;16.36;78.10
63552;BME280;49698;48.072;7.800;2022-09-09T01:26:15;99084.69;;;16.41;77.20
63552;BME280;49698;48.072;7.800;2022-09-09T01:28:47;99070.94;;;16.46;76.96
63552;BME280;49698;48.072;7.800;2022-09-09T01:31:20;99081.59;;;16.51;76.50
63552;BME280;49698;48.072;7.800;2022-09-09T01:33:49;99086.81;;;16.56;76.39
63552;BME280;49698;48.072;7.800;2022-09-09T01:36:26;99090.03;;;16.58;76.08
63552;BME280;49698;48.072;7.800;2022-09-09T01:38:57;99087.97;;;16.55;76.11
63552;BME280;49698;48.072;7.800;2022-09-09T01:41:27;99085.25;;;16.55;76.07
63552;BME280;49698;48.072;7.800;2022-09-09T01:44:17;99091.13;;;16.57;75.60
63552;BME280;49698;48.072;7.800;2022-09-09T01:46:47;99092.38;;;16.59;75.44
63552;BME280;49698;48.072;7.800;2022-09-09T01:49:18;99092.88;;;16.61;75.16
63552;BME280;49698;48.072;7.800;2022-09-09T01:51:49;99094.91;;;16.64;75.08
63552;BME280;49698;48.072;7.800;2022-09-09T01:54:24;99089.94;;;16.67;75.14
63552;BME280;49698;48.072;7.800;2022-09-09T01:57:03;99079.88;;;16.67;74.86
63552;BME280;49698;48.072;7.800;2022-09-09T01:59:47;99077.97;;;16.68;74.89
63552;BME280;49698;48.072;7.800;2022-09-09T02:02:24;99098.09;;;16.67;74.81
63552;BME280;49698;48.072;7.800;2022-09-09T02:05:12;99088.03;;;16.67;74.84
63552;BME280;49698;48.072;7.800;2022-09-09T02:07:46;99089.16;;;16.66;74.74
63552;BME280;49698;48.072;7.800;2022-09-09T02:10:31;99080.38;;;16.69;74.62
63552;BME280;49698;48.072;7.800;2022-09-09T02:13:16;99081.94;;;16.70;74.46
63552;BME280;49698;48.072;7.800;2022-09-09T02:15:47;99083.53;;;16.71;74.63
63552;BME280;49698;48.072;7.800;2022-09-09T02:18:21;99083.22;;;16.73;74.39
63552;BME280;49698;48.072;7.800;2022-09-09T02:20:52;99087.81;;;16.72;74.59
63552;BME280;49698;48.072;7.800;2022-09-09T02:23:21;99088.16;;;16.71;74.91
63552;BME280;49698;48.072;7.800;2022-09-09T02:25:53;99092.00;;;16.70;75.03
63552;BME280;49698;48.072;7.800;2022-09-09T02:28:28;99080.81;;;16.71;75.16
63552;BME280;49698;48.072;7.800;2022-09-09T02:30:57;99078.88;;;16.72;75.16
63552;BME280;49698;48.072;7.800;2022-09-09T02:33:37;99085.94;;;16.73;75.36
63552;BME280;49698;48.072;7.800;2022-09-09T02:36:08;99092.19;;;16.73;75.31
63552;BME280;49698;48.072;7.800;2022-09-09T02:38:45;99087.03;;;16.72;75.39
63552;BME280;49698;48.072;7.800;2022-09-09T02:41:18;99084.97;;;16.69;75.42
63552;BME280;49698;48.072;7.800;2022-09-09T02:43:50;99090.28;;;16.65;75.80
63552;BME280;49698;48.072;7.800;2022-09-09T02:46:29;99085.53;;;16.62;76.21
63552;BME280;49698;48.072;7.800;2022-09-09T02:49:04;99084.59;;;16.58;76.67
63552;BME280;49698;48.072;7.800;2022-09-09T02:51:45;99088.31;;;16.53;76.63
63552;BME280;49698;48.072;7.800;2022-09-09T02:54:21;99089.75;;;16.51;77.00
63552;BME280;49698;48.072;7.800;2022-09-09T02:56:55;99089.94;;;16.46;77.32
63552;BME280;49698;48.072;7.800;2022-09-09T02:59:33;99088.88;;;16.38;77.65
63552;BME280;49698;48.072;7.800;2022-09-09T03:02:02;99075.97;;;16.35;77.80
63552;BME280;49698;48.072;7.800;2022-09-09T03:04:31;99075.81;;;16.31;78.01
63552;BME280;49698;48.072;7.800;2022-09-09T03:06:59;99077.91;;;16.26;78.52
63552;BME280;49698;48.072;7.800;2022-09-09T03:09:27;99086.72;;;16.23;78.66
63552;BME280;49698;48.072;7.800;2022-09-09T03:11:55;99080.38;;;16.19;79.01
63552;BME280;49698;48.072;7.800;2022-09-09T03:14:24;99089.16;;;16.16;79.31
63552;BME280;49698;48.072;7.800;2022-09-09T03:16:54;99089.47;;;16.14;79.40
63552;BME280;49698;48.072;7.800;2022-09-09T03:19:26;99087.88;;;16.13;79.47
63552;BME280;49698;48.072;7.800;2022-09-09T03:21:54;99089.47;;;16.14;79.43
63552;BME280;49698;48.072;7.800;2022-09-09T03:24:23;99085.16;;;16.13;79.88
63552;BME280;49698;48.072;7.800;2022-09-09T03:26:51;99081.34;;;16.14;79.97
63552;BME280;49698;48.072;7.800;2022-09-09T03:29:20;99077.53;;;16.15;80.00
63552;BME280;49698;48.072;7.800;2022-09-09T03:31:49;99083.41;;;16.17;79.85
63552;BME280;49698;48.072;7.800;2022-09-09T03:34:19;99081.16;;;16.19;80.14
63552;BME280;49698;48.072;7.800;2022-09-09T03:36:47;99073.47;;;16.21;80.17
63552;BME280;49698;48.072;7.800;2022-09-09T03:39:16;99077.78;;;16.22;80.12
63552;BME280;49698;48.072;7.800;2022-09-09T03:41:44;99066.13;;;16.22;80.41
63552;BME280;49698;48.072;7.800;2022-09-09T03:44:14;99070.75;;;16.21;80.54
63552;BME280;49698;48.072;7.800;2022-09-09T03:46:43;99063.75;;;16.20;80.54
63552;BME280;49698;48.072;7.800;2022-09-09T03:49:11;99063.28;;;16.18;80.71
63552;BME280;49698;48.072;7.800;2022-09-09T03:51:41;99063.47;;;16.13;80.91
63552;BME280;49698;48.072;7.800;2022-09-09T03:54:11;99072.25;;;16.10;81.20
63552;BME280;49698;48.072;7.800;2022-09-09T03:56:40;99073.59;;;16.04;81.42
63552;BME280;49698;48.072;7.800;2022-09-09T03:59:11;99075.22;;;15.96;81.55
63552;BME280;49698;48.072;7.800;2022-09-09T04:01:41;99070.78;;;15.92;81.95
63552;BME280;49698;48.072;7.800;2022-09-09T04:04:10;99074.13;;;15.88;82.02
63552;BME280;49698;48.072;7.800;2022-09-09T04:06:40;99074.44;;;15.87;82.24
63552;BME280;49698;48.072;7.800;2022-09-09T04:09:08;99077.00;;;15.83;82.28
63552;BME280;49698;48.072;7.800;2022-09-09T04:11:36;99071.47;;;15.80;82.58
63552;BME280;49698;48.072;7.800;2022-09-09T04:14:06;99073.69;;;15.78;82.29
63552;BME280;49698;48.072;7.800;2022-09-09T04:16:34;99064.28;;;15.75;82.59
63552;BME280;49698;48.072;7.800;2022-09-09T04:19:04;99066.53;;;15.73;82.51
63552;BME280;49698;48.072;7.800;2022-09-09T04:21:33;99063.84;;;15.73;82.36
63552;BME280;49698;48.072;7.800;2022-09-09T04:24:03;99068.91;;;15.75;82.11
63552;BME280;49698;48.072;7.800;2022-09-09T04:26:31;99065.91;;;15.76;81.88
63552;BME280;49698;48.072;7.800;2022-09-09T04:29:00;99059.34;;;15.77;81.69
63552;BME280;49698;48.072;7.800;2022-09-09T04:31:28;99067.16;;;15.79;81.63
63552;BME280;49698;48.072;7.800;2022-09-09T04:33:56;99063.00;;;15.81;81.37
63552;BME280;49698;48.072;7.800;2022-09-09T04:36:25;99064.72;;;15.86;81.15
63552;BME280;49698;48.072;7.800;2022-09-09T04:38:57;99056.41;;;15.91;80.96
63552;BME280;49698;48.072;7.800;2022-09-09T04:41:27;99058.16;;;15.96;80.58
63552;BME280;49698;48.072;7.800;2022-09-09T04:43:55;99061.13;;;16.03;80.30
63552;BME280;49698;48.072;7.800;2022-09-09T04:46:23;99059.38;;;16.07;80.00
63552;BME280;49698;48.072;7.800;2022-09-09T04:48:52;99065.06;;;16.14;79.74
63552;BME280;49698;48.072;7.800;2022-09-09T04:51:22;99071.91;;;16.20;79.50
63552;BME280;49698;48.072;7.800;2022-09-09T04:53:51;99073.31;;;16.26;79.37
63552;BME280;49698;48.072;7.800;2022-09-09T04:56:20;99075.81;;;16.31;79.50
63552;BME280;49698;48.072;7.800;2022-09-09T04:58:56;99070.19;;;16.36;79.45
63552;BME280;49698;48.072;7.800;2022-09-09T05:01:34;99071.13;;;16.41;79.09
63552;BME280;49698;48.072;7.800;2022-09-09T05:04:04;99082.13;;;16.44;79.06
63552;BME280;49698;48.072;7.800;2022-09-09T05:06:33;99088.81;;;16.47;79.17
63552;BME280;49698;48.072;7.800;2022-09-09T05:09:03;99088.81;;;16.47;79.24
63552;BME280;49698;48.072;7.800;2022-09-09T05:11:32;99086.09;;;16.47;79.35
63552;BME280;49698;48.072;7.800;2022-09-09T05:14:12;99093.09;;;16.48;79.33
63552;BME280;49698;48.072;7.800;2022-09-09T05:16:41;99088.47;;;16.48;79.37
63552;BME280;49698;48.072;7.800;2022-09-09T05:19:11;99088.16;;;16.50;79.26
63552;BME280;49698;48.072;7.800;2022-09-09T05:21:45;99087.81;;;16.51;79.20
63552;BME280;49698;48.072;7.800;2022-09-09T05:24:17;99087.03;;;16.51;79.09
63552;BME280;49698;48.072;7.800;2022-09-09T05:26:47;99086.38;;;16.54;79.24
63552;BME280;49698;48.072;7.800;2022-09-09T05:29:16;99082.53;;;16.55;79.08
63552;BME280;49698;48.072;7.800;2022-09-09T05:31:46;99096.09;;;16.55;79.07
63552;BME280;49698;48.072;7.800;2022-09-09T05:34:18;99092.25;;;16.56;79.07
63552;BME280;49698;48.072;7.800;2022-09-09T05:36:46;99090.81;;;16.58;78.88
63552;BME280;49698;48.072;7.800;2022-09-09T05:39:15;99094.75;;;16.61;78.83
63552;BME280;49698;48.072;7.800;2022-09-09T05:41:43;99097.31;;;16.66;78.66
63552;BME280;49698;48.072;7.800;2022-09-09T05:44:11;99087.38;;;16.70;78.40
63552;BME280;49698;48.072;7.800;2022-09-09T05:46:41;99092.31;;;16.77;78.43
63552;BME280;49698;48.072;7.800;2022-09-09T05:49:10;99091.31;;;16.81;78.23
63552;BME280;49698;48.072;7.800;2022-09-09T05:51:40;99094.94;;;16.85;78.13
63552;BME280;49698;48.072;7.800;2022-09-09T05:54:12;99094.28;;;16.89;77.83
63552;BME280;49698;48.072;7.800;2022-09-09T05:56:45;99096.78;;;16.94;77.71
63552;BME280;49698;48.072;7.800;2022-09-09T05:59:15;99105.88;;;16.98;77.43
63552;BME280;49698;48.072;7.800;2022-09-09T06:01:45;99104.84;;;17.02;77.33
63552;BME280;49698;48.072;7.800;2022-09-09T06:04:20;99103.53;;;17.08;77.10
63552;BME280;49698;48.072;7.800;2022-09-09T06:06:49;99111.13;;;17.15;76.79
63552;BME280;49698;48.072;7.800;2022-09-09T06:09:20;99110.94;;;17.20;76.50
63552;BME280;49698;48.072;7.800;2022-09-09T06:11:48;99110.72;;;17.25;76.43
63552;BME280;49698;48.072;7.800;2022-09-09T06:14:18;99102.72;;;17.29;76.32
63552;BME280;49698;48.072;7.800;2022-09-09T06:16:49;99098.97;;;17.33;76.17
63552;BME280;49698;48.072;7.800;2022-09-09T06:19:21;99101.81;;;17.37;76.01
63552;BME280;49698;48.072;7.800;2022-09-09T06:21:50;99111.69;;;17.42;76.01
63552;BME280;49698;48.072;7.800;2022-09-09T06:24:18;99112.16;;;17.44;75.94
63552;BME280;49698;48.072;7.800;2022-09-09T06:26:47;99104.91;;;17.48;75.77
63552;BME280;49698;48.072;7.800;2022-09-09T06:29:21;99103.56;;;17.54;75.57
63552;BME280;49698;48.072;7.800;2022-09-09T06:31:52;99099.84;;;17.58;75.39
63552;BME280;49698;48.072;7.800;2022-09-09T06:34:22;99103.63;;;17.66;75.03
63552;BME280;49698;48.072;7.800;2022-09-09T06:36:54;99101.81;;;17.70;74.87
63552;BME280;49698;48.072;7.800;2022-09-09T06:39:25;99100.00;;;17.74;74.61
63552;BME280;49698;48.072;7.800;2022-09-09T06:41:54;99112.25;;;17.80;74.47
63552;BME280;49698;48.072;7.800;2022-09-09T06:44:48;99120.88;;;17.82;74.39
63552;BME280;49698;48.072;7.800;2022-09-09T06:47:38;99118.47;;;17.81;74.34
63552;BME280;49698;48.072;7.800;2022-09-09T06:50:07;99116.59;;;17.81;74.27
63552;BME280;49698;48.072;7.800;2022-09-09T06:52:38;99121.66;;;17.83;74.38
63552;BME280;49698;48.072;7.800;2022-09-09T06:55:08;99105.34;;;17.83;74.28
63552;BME280;49698;48.072;7.800;2022-09-09T06:57:36;99115.88;;;17.84;74.35
63552;BME280;49698;48.072;7.800;2022-09-09T07:00:10;99121.91;;;17.90;74.07
63552;BME280;49698;48.072;7.800;2022-09-09T07:02:41;99119.75;;;17.96;73.95
63552;BME280;49698;48.072;7.800;2022-09-09T07:05:12;99129.28;;;18.02;73.88
63552;BME280;49698;48.072;7.800;2022-09-09T07:07:41;99126.81;;;18.09;73.52
63552;BME280;49698;48.072;7.800;2022-09-09T07:10:11;99127.47;;;18.18;73.11
63552;BME280;49698;48.072;7.800;2022-09-09T07:12:39;99126.13;;;18.24;72.94
63552;BME280;49698;48.072;7.800;2022-09-09T07:15:09;99140.41;;;18.33;72.51
63552;BME280;49698;48.072;7.800;2022-09-09T07:17:42;99136.78;;;18.42;71.99
63552;BME280;49698;48.072;7.800;2022-09-09T07:20:11;99139.34;;;18.50;71.74
63552;BME280;49698;48.072;7.800;2022-09-09T07:22:39;99133.34;;;18.57;71.43
63552;BME280;49698;48.072;7.800;2022-09-09T07:25:09;99142.41;;;18.61;70.98
63552;BME280;49698;48.072;7.800;2022-09-09T07:27:37;99136.28;;;18.64;71.00
63552;BME280;49698;48.072;7.800;2022-09-09T07:30:06;99137.97;;;18.69;70.70
63552;BME280;49698;48.072;7.800;2022-09-09T07:32:35;99140.28;;;18.79;70.37
63552;BME280;49698;48.072;7.800;2022-09-09T07:35:05;99136.28;;;18.89;70.11
63552;BME280;49698;48.072;7.800;2022-09-09T07:37:36;99136.03;;;18.94;69.88
63552;BME280;49698;48.072;7.800;2022-09-09T07:40:04;99144.22;;;18.94;69.67
63552;BME280;49698;48.072;7.800;2022-09-09T07:42:33;99143.06;;;18.95;69.52
63552;BME280;49698;48.072;7.800;2022-09-09T07:45:03;99136.72;;;18.91;69.64
63552;BME280;49698;48.072;7.800;2022-09-09T07:47:32;99154.53;;;18.88;69.48
63552;BME280;49698;48.072;7.800;2022-09-09T07:50:01;99154.53;;;18.88;69.28
63552;BME280;49698;48.072;7.800;2022-09-09T07:55:03;99151.94;;;18.92;68.69
63552;BME280;49698;48.072;7.800;2022-09-09T07:57:32;99154.22;;;18.90;68.86
63552;BME280;49698;48.072;7.800;2022-09-09T08:00:03;99153.75;;;18.88;68.58
63552;BME280;49698;48.072;7.800;2022-09-09T08:02:38;99157.63;;;18.87;68.57
63552;BME280;49698;48.072;7.800;2022-09-09T08:05:08;99156.47;;;18.88;68.91
63552;BME280;49698;48.072;7.800;2022-09-09T08:07:39;99151.38;;;18.86;68.99
63552;BME280;49698;48.072;7.800;2022-09-09T08:10:07;99153.75;;;18.88;68.51
63552;BME280;49698;48.072;7.800;2022-09-09T08:12:38;99152.03;;;18.95;68.47
63552;BME280;49698;48.072;7.800;2022-09-09T08:15:08;99145.97;;;19.14;67.82
63552;BME280;49698;48.072;7.800;2022-09-09T08:17:37;99153.59;;;19.37;67.24
63552;BME280;49698;48.072;7.800;2022-09-09T08:20:07;99153.38;;;19.58;66.34
63552;BME280;49698;48.072;7.800;2022-09-09T08:22:35;99151.59;;;19.77;65.67
63552;BME280;49698;48.072;7.800;2022-09-09T08:25:06;99144.22;;;19.94;65.07
63552;BME280;49698;48.072;7.800;2022-09-09T08:27:36;99157.06;;;20.09;64.48
63552;BME280;49698;48.072;7.800;2022-09-09T08:30:06;99154.69;;;20.23;64.15
63552;BME280;49698;48.072;7.800;2022-09-09T08:32:34;99156.44;;;20.32;63.71
63552;BME280;49698;48.072;7.800;2022-09-09T08:35:03;99152.56;;;20.48;63.32
63552;BME280;49698;48.072;7.800;2022-09-09T08:37:33;99145.69;;;20.70;62.93
63552;BME280;49698;48.072;7.800;2022-09-09T08:40:02;99158.50;;;20.86;62.31
63552;BME280;49698;48.072;7.800;2022-09-09T08:42:38;99148.28;;;21.02;61.80
63552;BME280;49698;48.072;7.800;2022-09-09T08:45:22;99155.53;;;21.10;61.54
63552;BME280;49698;48.072;7.800;2022-09-09T08:48:10;99156.09;;;21.19;61.22
63552;BME280;49698;48.072;7.800;2022-09-09T08:50:41;99152.34;;;21.28;60.93
63552;BME280;49698;48.072;7.800;2022-09-09T08:53:17;99151.88;;;21.41;60.50
63552;BME280;49698;48.072;7.800;2022-09-09T08:55:51;99146.25;;;21.54;60.18
63552;BME280;49698;48.072;7.800;2022-09-09T08:58:53;99158.19;;;21.65;59.61
63552;BME280;49698;48.072;7.800;2022-09-09T09:01:53;99155.56;;;21.72;58.98
63552;BME280;49698;48.072;7.800;2022-09-09T09:04:41;99162.84;;;21.87;57.76
63552;BME280;49698;48.072;7.800;2022-09-09T09:07:21;99160.31;;;21.98;56.84
63552;BME280;49698;48.072;7.800;2022-09-09T09:10:02;99161.44;;;22.16;55.99
63552;BME280;49698;48.072;7.800;2022-09-09T09:12:43;99154.72;;;22.37;55.14
63552;BME280;49698;48.072;7.800;2022-09-09T09:15:18;99163.44;;;22.42;54.61
63552;BME280;49698;48.072;7.800;2022-09-09T09:17:49;99164.66;;;22.22;54.64
63552;BME280;49698;48.072;7.800;2022-09-09T09:20:23;99161.03;;;21.95;55.21
63552;BME280;49698;48.072;7.800;2022-09-09T09:22:59;99154.81;;;21.75;55.57
63552;BME280;49698;48.072;7.800;2022-09-09T09:25:32;99162.84;;;21.64;55.86
63552;BME280;49698;48.072;7.800;2022-09-09T09:28:07;99148.53;;;21.52;56.16
63552;BME280;49698;48.072;7.800;2022-09-09T09:30:50;99151.38;;;21.36;56.02
63552;BME280;49698;48.072;7.800;2022-09-09T09:33:24;99152.88;;;21.33;56.13
63552;BME280;49698;48.072;7.800;2022-09-09T09:35:53;99145.47;;;21.53;55.66
63552;BME280;49698;48.072;7.800;2022-09-09T09:38:24;99158.50;;;21.83;54.47
63552;BME280;49698;48.072;7.800;2022-09-09T09:41:13;99152.66;;;22.07;53.47
63552;BME280;49698;48.072;7.800;2022-09-09T09:43:41;99149.28;;;22.14;52.82
63552;BME280;49698;48.072;7.800;2022-09-09T09:46:21;99144.69;;;21.98;53.15
63552;BME280;49698;48.072;7.800;2022-09-09T09:48:56;99144.22;;;21.93;53.34
63552;BME280;49698;48.072;7.800;2022-09-09T09:51:26;99141.72;;;22.07;52.95
63552;BME280;49698;48.072;7.800;2022-09-09T09:54:07;99135.75;;;22.25;52.39
63552;BME280;49698;48.072;7.800;2022-09-09T09:56:38;99135.25;;;22.42;51.72
63552;BME280;49698;48.072;7.800;2022-09-09T09:59:20;99141.94;;;22.71;51.07
63552;BME280;49698;48.072;7.800;2022-09-09T10:01:50;99141.00;;;22.90;50.20
63552;BME280;49698;48.072;7.800;2022-09-09T10:04:20;99132.19;;;23.00;49.47
63552;BME280;49698;48.072;7.800;2022-09-09T10:06:52;99129.97;;;23.13;49.20
63552;BME280;49698;48.072;7.800;2022-09-09T10:09:23;99128.44;;;23.15;49.01
63552;BME280;49698;48.072;7.800;2022-09-09T10:11:57;99126.81;;;23.11;48.79
63552;BME280;49698;48.072;7.800;2022-09-09T10:14:34;99127.78;;;23.26;48.07
63552;BME280;49698;48.072;7.800;2022-09-09T10:17:15;99117.31;;;23.38;47.38
63552;BME280;49698;48.072;7.800;2022-09-09T10:19:55;99124.50;;;23.47;46.25
63552;BME280;49698;48.072;7.800;2022-09-09T10:22:27;99128.84;;;23.17;46.02
63552;BME280;49698;48.072;7.800;2022-09-09T10:25:30;99132.91;;;22.70;46.49
63552;BME280;49698;48.072;7.800;2022-09-09T10:28:16;99131.25;;;22.36;47.23
63552;BME280;49698;48.072;7.800;2022-09-09T10:30:56;99126.94;;;22.35;47.84
63552;BME280;49698;48.072;7.800;2022-09-09T10:33:35;99127.00;;;22.38;47.90
63552;BME280;49698;48.072;7.800;2022-09-09T10:36:12;99135.75;;;22.25;48.26
63552;BME280;49698;48.072;7.800;2022-09-09T10:38:42;99131.91;;;22.06;48.80
63552;BME280;49698;48.072;7.800;2022-09-09T10:41:18;99139.59;;;21.97;49.05
63552;BME280;49698;48.072;7.800;2022-09-09T10:44:16;99142.50;;;21.85;48.98
63552;BME280;49698;48.072;7.800;2022-09-09T10:46:56;99137.38;;;21.83;48.79
63552;BME280;49698;48.072;7.800;2022-09-09T10:49:42;99136.91;;;22.01;48.39
63552;BME280;49698;48.072;7.800;2022-09-09T10:52:20;99132.28;;;22.28;47.91
63552;BME280;49698;48.072;7.800;2022-09-09T10:54:56;99144.63;;;22.41;47.59
63552;BME280;49698;48.072;7.800;2022-09-09T10:57:31;99154.19;;;22.28;47.17
63552;BME280;49698;48.072;7.800;2022-09-09T11:00:05;99156.13;;;22.04;47.47
63552;BME280;49698;48.072;7.800;2022-09-09T11:02:34;99159.22;;;21.80;48.29
63552;BME280;49698;48.072;7.800;2022-09-09T11:05:05;99158.97;;;21.65;49.03
63552;BME280;49698;48.072;7.800;2022-09-09T11:07:40;99161.13;;;21.56;49.51
63552;BME280;49698;48.072;7.800;2022-09-09T11:10:18;99159.53;;;21.55;49.89
63552;BME280;49698;48.072;7.800;2022-09-09T11:12:53;99160.25;;;21.52;49.94
63552;BME280;49698;48.072;7.800;2022-09-09T11:15:26;99160.94;;;21.45;49.58
63552;BME280;49698;48.072;7.800;2022-09-09T11:17:59;99159.72;;;21.43;49.85
63552;BME280;49698;48.072;7.800;2022-09-09T11:20:30;99168.22;;;21.38;49.88
63552;BME280;49698;48.072;7.800;2022-09-09T11:23:01;99162.28;;;21.36;50.05
63552;BME280;49698;48.072;7.800;2022-09-09T11:25:34;99168.75;;;21.28;50.06
63552;BME280;49698;48.072;7.800;2022-09-09T11:28:16;99166.56;;;21.17;50.25
63552;BME280;49698;48.072;7.800;2022-09-09T11:30:58;99157.81;;;21.08;50.67
63552;BME280;49698;48.072;7.800;2022-09-09T11:33:47;99159.47;;;21.13;50.79
63552;BME280;49698;48.072;7.800;2022-09-09T11:36:37;99153.50;;;21.27;50.80
63552;BME280;49698;48.072;7.800;2022-09-09T11:39:24;99157.25;;;21.57;50.44
63552;BME280;49698;48.072;7.800;2022-09-09T11:42:06;99156.25;;;21.88;50.24
63552;BME280;49698;48.072;7.800;2022-09-09T11:44:34;99157.16;;;21.96;50.34
63552;BME280;49698;48.072;7.800;2022-09-09T11:47:03;99156.72;;;21.94;50.56
63552;BME280;49698;48.072;7.800;2022-09-09T11:49:43;99151.56;;;21.89;50.92
63552;BME280;49698;48.072;7.800;2022-09-09T11:52:22;99156.41;;;21.99;50.30
63552;BME280;49698;48.072;7.800;2022-09-09T11:54:54;99156.59;;;22.10;49.82
63552;BME280;49698;48.072;7.800;2022-09-09T11:57:25;99159.00;;;22.11;49.72
63552;BME280;49698;48.072;7.800;2022-09-09T11:59:55;99162.16;;;22.13;49.50
63552;BME280;49698;48.072;7.800;2022-09-09T12:02:26;99157.81;;;22.12;49.25
63552;BME280;49698;48.072;7.800;2022-09-09T12:04:59;99155.81;;;22.09;48.88
63552;BME280;49698;48.072;7.800;2022-09-09T12:07:35;99154.59;;;22.30;47.68
63552;BME280;49698;48.072;7.800;2022-09-09T12:10:20;99157.56;;;22.44;46.79
63552;BME280;49698;48.072;7.800;2022-09-09T12:12:50;99145.72;;;22.36;46.42
63552;BME280;49698;48.072;7.800;2022-09-09T12:15:26;99152.06;;;22.17;46.72
63552;BME280;49698;48.072;7.800;2022-09-09T12:17:57;99158.56;;;22.09;47.21
63552;BME280;49698;48.072;7.800;2022-09-09T12:20:34;99147.97;;;22.08;47.05
63552;BME280;49698;48.072;7.800;2022-09-09T12:23:19;99145.66;;;22.10;47.11
63552;BME280;49698;48.072;7.800;2022-09-09T12:26:04;99157.59;;;22.21;46.83
63552;BME280;49698;48.072;7.800;2022-09-09T12:28:42;99148.56;;;22.43;46.43
63552;BME280;49698;48.072;7.800;2022-09-09T12:31:16;99148.84;;;22.61;45.80
63552;BME280;49698;48.072;7.800;2022-09-09T12:33:46;99154.72;;;22.63;45.72
63552;BME280;49698;48.072;7.800;2022-09-09T12:36:17;99142.00;;;22.48;46.25
63552;BME280;49698;48.072;7.800;2022-09-09T12:38:48;99140.97;;;22.33;46.46
63552;BME280;49698;48.072;7.800;2022-09-09T12:41:21;99139.16;;;22.18;46.94
63552;BME280;49698;48.072;7.800;2022-09-09T12:43:50;99144.09;;;22.09;46.94
63552;BME280;49698;48.072;7.800;2022-09-09T12:46:28;99142.78;;;22.03;46.97
63552;BME280;49698;48.072;7.800;2022-09-09T12:48:59;99141.03;;;21.91;46.91
63552;BME280;49698;48.072;7.800;2022-09-09T12:51:30;99137.81;;;21.85;46.93
63552;BME280;49698;48.072;7.800;2022-09-09T12:54:00;99127.59;;;21.82;46.97
63552;BME280;49698;48.072;7.800;2022-09-09T12:56:30;99125.53;;;21.76;47.00
63552;BME280;49698;48.072;7.800;2022-09-09T12:58:59;99128.56;;;21.70;47.45
63552;BME280;49698;48.072;7.800;2022-09-09T13:01:29;99133.91;;;21.63;47.62
63552;BME280;49698;48.072;7.800;2022-09-09T13:03:58;99129.16;;;21.60;47.53
63552;BME280;49698;48.072;7.800;2022-09-09T13:06:27;99133.78;;;21.56;47.67
63552;BME280;49698;48.072;7.800;2022-09-09T13:08:57;99130.19;;;21.52;47.78
63552;BME280;49698;48.072;7.800;2022-09-09T13:11:30;99125.88;;;21.51;47.92
63552;BME280;49698;48.072;7.800;2022-09-09T13:14:03;99134.59;;;21.57;48.12
63552;BME280;49698;48.072;7.800;2022-09-09T13:16:33;99117.22;;;21.68;47.90
63552;BME280;49698;48.072;7.800;2022-09-09T13:19:08;99116.28;;;21.84;47.76
63552;BME280;49698;48.072;7.800;2022-09-09T13:21:38;99121.94;;;21.94;47.86
63552;BME280;49698;48.072;7.800;2022-09-09T13:24:21;99126.56;;;21.90;48.29
63552;BME280;49698;48.072;7.800;2022-09-09T13:26:56;99127.97;;;21.81;48.90
63552;BME280;49698;48.072;7.800;2022-09-09T13:29:24;99120.88;;;21.76;49.19
63552;BME280;49698;48.072;7.800;2022-09-09T13:31:53;99118.00;;;21.69;49.46
63552;BME280;49698;48.072;7.800;2022-09-09T13:34:29;99121.38;;;21.62;50.41
63552;BME280;49698;48.072;7.800;2022-09-09T13:37:00;99131.34;;;21.51;50.72